KFYM/FYM METAR and TAF weather

Enter ICAO airport designator
Station Type Date Time Source
KFYM METAR 2019/08/24 21:55 UTC NOAA

KFYM 242155Z AUTO 01008KT 10SM FEW025 29/23 A2999 RMK A01


Station Type Date Time Source
KFYM Decoded METAR 2019/08/24 21:55 UTC NOAA

Station name not available
Aug 24, 2019 - 05:55 PM EDT / 2019.08.24 2155 UTC
Wind: from the N (010 degrees) at 9 MPH (8 KT):0
Visibility: 10 mile(s):0
Sky conditions: mostly clear
Temperature: 84 F (29 C)
Dew Point: 73 F (23 C)
Relative Humidity: 70%
Pressure (altimeter): 29.99 in. Hg (1015 hPa)
ob: KFYM 242155Z AUTO 01008KT 10SM FEW025 29/23 A2999 RMK A01
cycle: 22

Station Type Date Time Source
KFYM TAF 2009/08/31 19:45 UTC NOAA

METAR KFYM 311945Z AUTO 01006KT 10SM CLR 26/11 A3009
RMK AO1 T02550111 $

Example: see airport list